Time;durP1;ratioP1;P1;durP2;ratioP2;P2;SDS_P1;SDS_P2;PMS_P1;PMS_P2;Temp;Humidity;BMP_temperature;BMP_pressure;BME280_temperature;BME280_humidity;BME280_pressure;Samples;Min_cycle;Max_cycle;Signal;HPM_P1;HPM_P2
2021/10/31 00:00:09;;;;;;;5.50;3.50;;;13.50;99.90;;;;;;5036603;28;20879;-80
2021/10/31 00:02:36;;;;;;;5.30;3.10;;;13.50;99.90;;;;;;5036604;28;20462;-80
2021/10/31 00:05:04;;;;;;;6.80;3.33;;;13.60;99.90;;;;;;5036320;28;20578;-80
2021/10/31 00:07:31;;;;;;;5.83;3.27;;;13.60;99.90;;;;;;5036434;28;20554;-81
2021/10/31 00:09:59;;;;;;;9.13;3.23;;;13.70;99.90;;;;;;5035780;28;20412;-81
2021/10/31 00:12:26;;;;;;;4.77;3.53;;;13.70;99.90;;;;;;5035659;28;20523;-81
2021/10/31 00:14:53;;;;;;;7.40;3.10;;;13.80;99.90;;;;;;5035636;28;20451;-81
2021/10/31 00:17:20;;;;;;;4.97;3.10;;;13.80;99.90;;;;;;5035468;28;20516;-81
2021/10/31 00:19:47;;;;;;;4.90;2.90;;;13.70;99.90;;;;;;5036090;28;20769;-81
2021/10/31 00:22:14;;;;;;;5.43;3.37;;;13.80;99.90;;;;;;5036095;28;20626;-81
2021/10/31 00:24:41;;;;;;;7.27;3.67;;;13.80;99.90;;;;;;5035720;28;20472;-82
2021/10/31 00:27:09;;;;;;;5.60;3.23;;;13.80;99.90;;;;;;5035634;28;20459;-81
2021/10/31 00:29:36;;;;;;;5.27;3.27;;;13.90;99.90;;;;;;5036527;28;20455;-81
2021/10/31 00:32:03;;;;;;;5.00;3.00;;;13.90;99.90;;;;;;5036942;28;20568;-81
2021/10/31 00:34:30;;;;;;;4.67;3.27;;;13.90;99.90;;;;;;5035584;28;20517;-81
2021/10/31 00:36:57;;;;;;;5.67;3.43;;;13.90;99.90;;;;;;5035810;28;20420;-82
2021/10/31 00:39:24;;;;;;;7.53;4.60;;;13.90;99.90;;;;;;5035772;28;20503;-81
2021/10/31 00:41:51;;;;;;;5.40;3.50;;;13.90;99.90;;;;;;5034714;28;20780;-81
2021/10/31 00:44:19;;;;;;;5.40;3.40;;;13.80;99.90;;;;;;5035450;28;20910;-81
2021/10/31 00:46:46;;;;;;;4.80;2.60;;;13.80;99.90;;;;;;5036902;28;20554;-81
2021/10/31 00:49:13;;;;;;;5.10;3.10;;;13.80;99.90;;;;;;5036312;28;20540;-81
2021/10/31 00:51:41;;;;;;;5.30;2.83;;;13.80;99.90;;;;;;5035215;28;20468;-81
2021/10/31 00:54:08;;;;;;;5.63;3.17;;;13.70;99.90;;;;;;5035754;28;20445;-81
2021/10/31 00:56:35;;;;;;;4.13;2.60;;;13.60;99.90;;;;;;5036779;28;20460;-81
2021/10/31 00:59:02;;;;;;;5.13;2.17;;;13.60;99.90;;;;;;5035783;28;20453;-81
2021/10/31 01:01:33;;;;;;;4.43;2.30;;;13.60;99.90;;;;;;5040311;28;20782;-82
2021/10/31 01:04:01;;;;;;;4.23;2.30;;;13.50;99.90;;;;;;5042264;28;20498;-79
2021/10/31 01:07:00;;;;;;;4.67;2.80;;;13.60;99.90;;;;;;5039451;28;20453;-81
2021/10/31 01:09:39;;;;;;;6.50;3.10;;;13.60;99.90;;;;;;5039129;28;20420;-81
2021/10/31 01:12:15;;;;;;;5.00;2.77;;;13.70;99.90;;;;;;5038758;28;20469;-81
2021/10/31 01:14:53;;;;;;;5.40;2.87;;;13.70;99.90;;;;;;5041786;28;20734;-81
2021/10/31 01:17:39;;;;;;;4.40;2.83;;;13.70;99.90;;;;;;5041366;28;20492;-81
2021/10/31 01:20:15;;;;;;;4.47;2.53;;;13.70;99.90;;;;;;5039748;28;20439;-81
2021/10/31 01:22:55;;;;;;;4.53;2.70;;;13.50;99.90;;;;;;5039224;28;20484;-82
2021/10/31 01:25:34;;;;;;;5.17;2.80;;;13.50;99.90;;;;;;5039563;28;20408;-81
2021/10/31 01:28:10;;;;;;;5.67;2.70;;;13.40;99.90;;;;;;5041386;28;20444;-81
2021/10/31 01:30:43;;;;;;;5.00;2.97;;;13.30;99.90;;;;;;5047895;28;20520;-81
2021/10/31 01:33:20;;;;;;;4.50;2.57;;;13.20;99.90;;;;;;5040925;28;20475;-81
2021/10/31 01:35:54;;;;;;;4.40;2.90;;;13.20;99.90;;;;;;5043535;28;20434;-81
2021/10/31 01:38:30;;;;;;;9.03;2.73;;;13.10;99.90;;;;;;5039622;28;20431;-81
2021/10/31 01:41:03;;;;;;;6.03;2.37;;;13.10;99.90;;;;;;5039336;28;20487;-81
2021/10/31 01:43:36;;;;;;;4.23;2.63;;;13.00;99.90;;;;;;5037844;28;20493;-81
2021/10/31 01:46:10;;;;;;;5.47;2.77;;;13.00;99.90;;;;;;5043295;28;20412;-81
2021/10/31 01:48:52;;;;;;;5.70;2.93;;;13.00;99.90;;;;;;5042940;28;20560;-81
2021/10/31 01:51:23;;;;;;;3.80;2.30;;;12.90;99.90;;;;;;5039165;28;20528;-81
2021/10/31 01:53:55;;;;;;;4.27;2.70;;;12.80;99.90;;;;;;5038594;28;20568;-81
2021/10/31 01:56:24;;;;;;;5.70;2.97;;;12.80;99.90;;;;;;5044499;28;20510;-81
2021/10/31 01:58:56;;;;;;;5.33;2.50;;;12.80;99.90;;;;;;5047456;28;20518;-81
2021/10/31 02:01:26;;;;;;;4.97;2.97;;;12.70;99.90;;;;;;5038569;28;20438;-81
2021/10/31 02:03:55;;;;;;;4.43;2.60;;;12.70;99.90;;;;;;5038560;28;20478;-81
2021/10/31 02:06:23;;;;;;;4.17;2.50;;;12.70;99.90;;;;;;5041967;28;20424;-81
2021/10/31 02:08:51;;;;;;;4.40;2.60;;;12.60;99.90;;;;;;5047098;28;20554;-81
2021/10/31 02:11:20;;;;;;;3.73;2.10;;;12.60;99.90;;;;;;5037175;28;20449;-81
2021/10/31 02:13:52;;;;;;;6.30;3.00;;;12.60;99.90;;;;;;5038043;28;20473;-81
2021/10/31 02:16:19;;;;;;;4.27;2.53;;;12.60;99.90;;;;;;5038905;28;20413;-81
2021/10/31 02:18:47;;;;;;;4.07;2.37;;;12.60;99.90;;;;;;5037694;28;20416;-81
2021/10/31 02:21:21;;;;;;;4.37;2.40;;;12.60;99.90;;;;;;5037360;28;20797;-81
2021/10/31 02:23:51;;;;;;;5.83;3.13;;;12.60;99.90;;;;;;5038431;28;20484;-81
2021/10/31 02:26:18;;;;;;;4.17;2.43;;;12.60;99.90;;;;;;5042278;28;20610;-81
2021/10/31 02:28:57;;;;;;;4.83;2.20;;;12.50;99.90;;;;;;5038666;28;20455;-81
2021/10/31 02:31:24;;;;;;;6.03;2.87;;;12.60;99.90;;;;;;5038646;28;20416;-81
2021/10/31 02:33:51;;;;;;;3.50;2.07;;;12.60;99.90;;;;;;5038298;28;20459;-81
2021/10/31 02:36:18;;;;;;;4.47;2.47;;;12.50;99.90;;;;;;5038480;28;20460;-81
2021/10/31 02:38:45;;;;;;;8.43;2.60;;;12.50;99.90;;;;;;5037721;28;20969;-81
2021/10/31 02:41:14;;;;;;;4.10;2.63;;;12.30;99.90;;;;;;5043209;28;20437;-81
2021/10/31 02:43:40;;;;;;;4.90;2.70;;;12.40;99.90;;;;;;5037716;28;20799;-81
2021/10/31 02:46:07;;;;;;;4.50;2.30;;;12.40;99.90;;;;;;5039581;28;20428;-81
2021/10/31 02:48:37;;;;;;;4.40;2.70;;;12.30;99.90;;;;;;5037134;28;20492;-81
2021/10/31 02:51:22;;;;;;;3.70;2.37;;;12.30;99.90;;;;;;5037619;28;20819;-81
2021/10/31 02:53:56;;;;;;;4.80;2.83;;;12.20;99.90;;;;;;5036961;28;20473;-81
2021/10/31 02:56:28;;;;;;;3.87;2.50;;;12.20;99.90;;;;;;5039242;28;20427;-81
2021/10/31 02:59:01;;;;;;;4.70;2.90;;;12.20;99.90;;;;;;5040452;28;20444;-81
2021/10/31 03:01:29;;;;;;;5.60;3.00;;;12.20;99.90;;;;;;5039823;28;20484;-81
2021/10/31 03:03:57;;;;;;;3.93;2.30;;;12.10;99.90;;;;;;5039473;28;20428;-81
2021/10/31 03:06:25;;;;;;;3.77;2.40;;;12.10;99.90;;;;;;5042816;28;20453;-80
2021/10/31 03:08:52;;;;;;;5.10;3.03;;;12.20;99.90;;;;;;5047678;28;20531;-81
2021/10/31 03:11:20;;;;;;;4.10;2.50;;;12.10;99.90;;;;;;5038993;28;21028;-81
2021/10/31 03:13:48;;;;;;;5.17;2.50;;;12.10;99.90;;;;;;5038292;28;21019;-81
2021/10/31 03:16:15;;;;;;;6.00;2.80;;;12.10;99.90;;;;;;5049644;28;20482;-80
2021/10/31 03:18:42;;;;;;;4.70;3.10;;;12.20;99.90;;;;;;5042122;28;20428;-81
2021/10/31 03:21:08;;;;;;;5.07;2.50;;;12.30;99.90;;;;;;5036819;28;20853;-81
2021/10/31 03:23:35;;;;;;;5.63;2.80;;;12.40;99.90;;;;;;5037963;28;20575;-81
2021/10/31 03:26:02;;;;;;;4.63;2.50;;;12.50;99.90;;;;;;5037487;28;20510;-81
2021/10/31 03:28:29;;;;;;;3.87;2.67;;;12.40;99.90;;;;;;5037166;28;20825;-81
2021/10/31 03:30:58;;;;;;;5.10;3.03;;;12.40;99.90;;;;;;5036634;28;20428;-81
2021/10/31 03:33:25;;;;;;;6.80;2.60;;;12.30;99.90;;;;;;5037263;28;20447;-81
2021/10/31 03:35:53;;;;;;;4.80;2.90;;;12.30;99.90;;;;;;5036662;28;20463;-81
2021/10/31 03:38:21;;;;;;;5.00;2.73;;;12.20;99.90;;;;;;5036421;28;20457;-81
2021/10/31 03:40:49;;;;;;;4.83;2.80;;;12.20;99.90;;;;;;5036908;28;20461;-81
2021/10/31 03:43:16;;;;;;;3.40;2.13;;;12.20;99.90;;;;;;5036934;28;20492;-81
2021/10/31 03:45:44;;;;;;;6.40;2.77;;;12.30;99.90;;;;;;5036652;28;20542;-81
2021/10/31 03:48:12;;;;;;;5.03;2.67;;;12.30;99.90;;;;;;5042589;28;20466;-81
2021/10/31 03:50:39;;;;;;;4.80;2.50;;;12.20;99.90;;;;;;5037490;28;20424;-81
2021/10/31 03:53:07;;;;;;;4.80;2.77;;;12.10;99.90;;;;;;5036696;28;20490;-81
2021/10/31 03:55:34;;;;;;;5.00;3.07;;;12.00;99.90;;;;;;5041128;28;20598;-81
2021/10/31 03:58:01;;;;;;;4.27;2.37;;;12.00;99.90;;;;;;5041342;28;20471;-80
2021/10/31 04:00:27;;;;;;;4.27;2.40;;;12.00;99.90;;;;;;5047463;28;20545;-81
2021/10/31 04:02:54;;;;;;;6.53;2.90;;;12.10;99.90;;;;;;5037543;28;20541;-81
2021/10/31 04:05:22;;;;;;;6.23;2.93;;;12.00;99.90;;;;;;5046126;28;20476;-81
2021/10/31 04:07:50;;;;;;;4.10;2.43;;;12.00;99.90;;;;;;5048369;28;20515;-80
2021/10/31 04:10:17;;;;;;;4.60;2.67;;;12.10;99.90;;;;;;5047817;28;20432;-81
2021/10/31 04:12:44;;;;;;;5.67;3.37;;;12.10;99.90;;;;;;5048036;28;20505;-81
2021/10/31 04:15:11;;;;;;;6.60;3.00;;;12.00;99.90;;;;;;5045511;28;20480;-81
2021/10/31 04:17:38;;;;;;;5.23;2.80;;;11.90;99.90;;;;;;5044765;28;20516;-81
2021/10/31 04:20:06;;;;;;;5.50;3.10;;;11.90;99.90;;;;;;5038387;28;20990;-81
2021/10/31 04:22:35;;;;;;;4.30;2.80;;;11.90;99.90;;;;;;5035373;28;20451;-81
2021/10/31 04:25:02;;;;;;;4.57;2.97;;;12.00;99.90;;;;;;5035805;28;20456;-81
2021/10/31 04:27:29;;;;;;;4.30;2.63;;;11.90;99.90;;;;;;5038174;28;20946;-81
2021/10/31 04:29:56;;;;;;;4.60;3.10;;;11.90;99.90;;;;;;5040030;28;20456;-81
2021/10/31 04:32:24;;;;;;;4.70;3.00;;;12.00;99.90;;;;;;5036805;28;20477;-81
2021/10/31 04:34:50;;;;;;;4.00;2.40;;;12.00;99.90;;;;;;5038405;28;20434;-81
2021/10/31 04:37:18;;;;;;;5.40;3.40;;;11.90;99.90;;;;;;5040664;28;20888;-81
2021/10/31 04:39:48;;;;;;;5.00;3.20;;;11.80;99.90;;;;;;5040737;28;20461;-81
2021/10/31 04:42:15;;;;;;;4.20;2.57;;;11.70;99.90;;;;;;5064616;22;20530;-77
2021/10/31 04:44:42;;;;;;;4.53;3.00;;;11.70;99.90;;;;;;5059585;28;20501;-77
2021/10/31 04:47:09;;;;;;;4.57;3.13;;;11.70;99.90;;;;;;5058808;28;20452;-77
2021/10/31 04:49:36;;;;;;;4.60;2.53;;;11.70;99.90;;;;;;5057023;28;20985;-77
2021/10/31 04:52:04;;;;;;;5.07;2.67;;;11.80;99.90;;;;;;5057578;28;20430;-78
2021/10/31 04:54:31;;;;;;;4.83;2.60;;;11.80;99.90;;;;;;5056453;28;20463;-77
2021/10/31 04:57:00;;;;;;;5.03;2.73;;;11.90;99.90;;;;;;5057584;28;20831;-77
2021/10/31 04:59:26;;;;;;;4.57;2.93;;;11.80;99.90;;;;;;5057173;28;20418;-77
2021/10/31 05:01:53;;;;;;;6.33;3.10;;;11.80;99.90;;;;;;5057654;28;20478;-77
2021/10/31 05:04:21;;;;;;;5.60;3.37;;;11.70;99.90;;;;;;5057552;28;20483;-77
2021/10/31 05:06:48;;;;;;;13.13;3.87;;;11.70;99.90;;;;;;5057431;28;20518;-78
2021/10/31 05:09:15;;;;;;;4.77;3.03;;;11.80;99.90;;;;;;5056179;28;20634;-76
2021/10/31 05:11:42;;;;;;;7.40;2.70;;;11.80;99.90;;;;;;5056042;28;20452;-78
2021/10/31 05:14:10;;;;;;;6.33;3.30;;;11.90;99.90;;;;;;5056512;28;20504;-78
2021/10/31 05:16:37;;;;;;;5.37;3.17;;;11.90;99.90;;;;;;5056840;28;20953;-77
2021/10/31 05:19:05;;;;;;;5.00;3.10;;;11.80;99.90;;;;;;5055706;28;20453;-76
2021/10/31 05:21:32;;;;;;;4.70;2.83;;;11.90;99.90;;;;;;5055626;28;20422;-77
2021/10/31 05:23:59;;;;;;;5.50;2.70;;;11.80;99.90;;;;;;5055283;28;20474;-77
2021/10/31 05:26:27;;;;;;;5.97;2.80;;;11.90;99.90;;;;;;5055558;28;20448;-77
2021/10/31 05:28:55;;;;;;;4.27;2.60;;;11.80;99.90;;;;;;5055396;28;20847;-78
2021/10/31 05:31:24;;;;;;;4.90;3.13;;;11.70;99.90;;;;;;5055994;28;20475;-78
2021/10/31 05:33:52;;;;;;;5.90;3.10;;;11.60;99.90;;;;;;5055535;28;20511;-76
2021/10/31 05:36:19;;;;;;;6.53;3.60;;;11.60;99.90;;;;;;5055197;28;20462;-77
2021/10/31 05:38:46;;;;;;;5.30;3.00;;;11.60;99.90;;;;;;5055460;28;20538;-77
2021/10/31 05:41:13;;;;;;;4.50;3.20;;;11.50;99.90;;;;;;5058214;28;20447;-76
2021/10/31 05:43:40;;;;;;;5.30;3.23;;;11.40;99.90;;;;;;5055052;28;20462;-76
2021/10/31 05:46:07;;;;;;;5.60;3.73;;;11.40;99.90;;;;;;5055925;28;20430;-77
2021/10/31 05:48:35;;;;;;;5.50;3.20;;;11.40;99.90;;;;;;5056125;28;20458;-76
2021/10/31 05:51:02;;;;;;;5.30;3.03;;;11.40;99.90;;;;;;5055041;28;20455;-76
2021/10/31 05:53:29;;;;;;;5.70;3.50;;;11.50;99.90;;;;;;5054603;28;20450;-77
2021/10/31 05:55:57;;;;;;;6.70;3.60;;;11.40;99.90;;;;;;5054917;28;20433;-77
2021/10/31 05:58:24;;;;;;;5.10;3.47;;;11.40;99.90;;;;;;5054495;28;21016;-77
2021/10/31 06:00:52;;;;;;;7.03;3.33;;;11.40;99.90;;;;;;5055033;28;20774;-76
2021/10/31 06:03:19;;;;;;;5.60;3.53;;;11.40;99.90;;;;;;5055033;28;20818;-76
2021/10/31 06:05:48;;;;;;;7.63;3.40;;;11.50;99.90;;;;;;5054687;28;20452;-76
2021/10/31 06:08:16;;;;;;;4.50;2.93;;;11.40;99.90;;;;;;5054600;28;20598;-78
2021/10/31 06:10:43;;;;;;;6.87;3.87;;;11.40;99.90;;;;;;5054706;28;20479;-76
2021/10/31 06:13:10;;;;;;;5.63;3.47;;;11.30;99.90;;;;;;5054501;28;20475;-77
2021/10/31 06:15:37;;;;;;;6.33;3.60;;;11.30;99.90;;;;;;5054270;28;20535;-77
2021/10/31 06:18:04;;;;;;;4.97;3.53;;;11.30;99.90;;;;;;5054665;28;20458;-77
2021/10/31 06:20:31;;;;;;;5.03;3.20;;;11.40;99.90;;;;;;5054769;28;20797;-77
2021/10/31 06:22:59;;;;;;;5.33;3.27;;;11.50;99.90;;;;;;5054738;28;20482;-77
2021/10/31 06:25:26;;;;;;;5.80;3.50;;;11.50;99.90;;;;;;5057156;28;20458;-77
2021/10/31 06:27:53;;;;;;;6.33;3.40;;;11.50;99.90;;;;;;5060226;28;20538;-77
2021/10/31 06:30:20;;;;;;;5.97;3.53;;;11.50;99.90;;;;;;5054305;28;20450;-77
2021/10/31 06:32:47;;;;;;;5.27;3.60;;;11.60;99.90;;;;;;5054142;28;20483;-77
2021/10/31 06:35:14;;;;;;;5.73;3.40;;;11.70;99.90;;;;;;5054145;28;20508;-77
2021/10/31 06:37:41;;;;;;;7.50;3.90;;;11.60;99.90;;;;;;5053888;28;20517;-77
2021/10/31 06:40:11;;;;;;;4.47;3.00;;;11.50;99.90;;;;;;5054595;28;20447;-77
2021/10/31 06:42:38;;;;;;;5.70;3.67;;;11.80;99.90;;;;;;5053920;28;20971;-78
2021/10/31 06:45:06;;;;;;;6.13;3.23;;;11.70;99.90;;;;;;5054746;28;20458;-78
2021/10/31 06:47:33;;;;;;;7.43;4.10;;;11.70;99.90;;;;;;5055004;28;20498;-77
2021/10/31 06:50:00;;;;;;;5.70;3.57;;;11.70;99.90;;;;;;5054504;28;20527;-77
2021/10/31 06:52:27;;;;;;;5.30;3.60;;;11.70;99.90;;;;;;5054047;28;20475;-77
2021/10/31 06:54:54;;;;;;;6.00;4.10;;;11.90;99.90;;;;;;5054002;28;20887;-77
2021/10/31 06:57:22;;;;;;;7.07;4.13;;;11.80;99.90;;;;;;5053376;28;20460;-77
2021/10/31 06:59:49;;;;;;;11.93;4.47;;;11.80;99.90;;;;;;5053412;28;21024;-77
2021/10/31 07:02:16;;;;;;;5.57;3.93;;;11.80;99.90;;;;;;5053809;28;20535;-76
2021/10/31 07:04:43;;;;;;;6.33;4.60;;;11.90;99.90;;;;;;5055561;28;20452;-76
2021/10/31 07:07:10;;;;;;;10.90;5.43;;;12.00;99.90;;;;;;5055254;28;20488;-77
2021/10/31 07:09:36;;;;;;;8.53;7.67;;;12.10;99.90;;;;;;5054115;28;20474;-77
2021/10/31 07:12:04;;;;;;;8.30;6.57;;;12.10;99.90;;;;;;5055393;28;20420;-77
2021/10/31 07:14:33;;;;;;;9.50;7.30;;;12.30;99.90;;;;;;5053542;28;20453;-77
2021/10/31 07:17:00;;;;;;;9.97;6.90;;;12.40;99.90;;;;;;5053982;28;20809;-77
2021/10/31 07:19:26;;;;;;;10.30;7.67;;;12.30;99.90;;;;;;5053226;28;20449;-76
2021/10/31 07:21:53;;;;;;;8.67;6.83;;;12.40;99.90;;;;;;5054819;28;20521;-77
2021/10/31 07:24:20;;;;;;;9.13;6.10;;;12.30;99.90;;;;;;5053393;28;20557;-77
2021/10/31 07:26:47;;;;;;;7.73;5.27;;;12.40;99.90;;;;;;5053321;28;20501;-77
2021/10/31 07:29:15;;;;;;;6.10;4.23;;;12.60;99.90;;;;;;5053360;28;20478;-77
2021/10/31 07:31:48;;;;;;;6.80;5.20;;;12.60;99.90;;;;;;5052634;28;20431;-77
2021/10/31 07:34:16;;;;;;;6.33;4.50;;;12.60;99.90;;;;;;5052562;28;21006;-77
2021/10/31 07:36:42;;;;;;;11.27;8.30;;;12.60;99.90;;;;;;5052996;28;20809;-77
2021/10/31 07:39:10;;;;;;;15.00;9.50;;;12.50;99.90;;;;;;5054036;28;20451;-77
2021/10/31 07:41:37;;;;;;;13.53;9.63;;;12.60;99.90;;;;;;5053953;28;20431;-78
2021/10/31 07:44:05;;;;;;;11.57;9.40;;;12.70;99.90;;;;;;5053381;28;20491;-76
2021/10/31 07:46:33;;;;;;;12.90;9.87;;;12.80;99.90;;;;;;5052746;28;20457;-77
2021/10/31 07:49:02;;;;;;;10.63;9.20;;;12.60;99.90;;;;;;5052583;28;20586;-76
2021/10/31 07:51:29;;;;;;;13.60;9.73;;;12.40;99.90;;;;;;5053230;28;20452;-77
2021/10/31 07:53:56;;;;;;;23.07;14.67;;;12.50;99.90;;;;;;5053870;28;20973;-78
2021/10/31 07:56:25;;;;;;;19.10;13.10;;;12.60;99.90;;;;;;5054677;28;20829;-78
2021/10/31 07:58:55;;;;;;;20.77;12.97;;;12.50;99.90;;;;;;5053909;28;20416;-77
2021/10/31 08:01:22;;;;;;;24.60;14.80;;;12.60;99.90;;;;;;5054799;28;20431;-78
2021/10/31 08:03:49;;;;;;;25.30;16.37;;;12.70;99.90;;;;;;5053472;28;20482;-78
2021/10/31 08:06:18;;;;;;;23.00;13.60;;;12.80;99.90;;;;;;5054374;28;20481;-78
2021/10/31 08:08:45;;;;;;;18.20;13.33;;;12.70;99.90;;;;;;5054017;28;20832;-78
2021/10/31 08:11:12;;;;;;;20.83;12.20;;;12.90;99.90;;;;;;5052750;28;20983;-77
2021/10/31 08:13:39;;;;;;;16.03;10.60;;;13.10;99.90;;;;;;5053660;28;20439;-78
2021/10/31 08:16:07;;;;;;;12.77;9.90;;;13.10;99.90;;;;;;5059967;28;20438;-77
2021/10/31 08:18:34;;;;;;;13.83;10.80;;;13.10;99.90;;;;;;5056621;28;20962;-76
2021/10/31 08:21:00;;;;;;;11.50;10.27;;;13.00;99.90;;;;;;5052605;28;20546;-77
2021/10/31 08:23:29;;;;;;;14.10;10.87;;;13.00;99.90;;;;;;5055559;28;20482;-78
2021/10/31 08:25:58;;;;;;;14.80;10.10;;;13.10;99.90;;;;;;5053746;28;20940;-78
2021/10/31 08:28:25;;;;;;;16.00;10.93;;;13.20;99.90;;;;;;5054360;28;20843;-78
2021/10/31 08:30:57;;;;;;;12.20;10.10;;;13.30;99.90;;;;;;5053921;28;20464;-78
2021/10/31 08:33:27;;;;;;;11.67;10.43;;;13.50;99.90;;;;;;5053842;28;20472;-77
2021/10/31 08:35:54;;;;;;;13.10;9.87;;;13.60;99.90;;;;;;5053948;28;20534;-77
2021/10/31 08:38:21;;;;;;;12.23;10.00;;;13.60;99.90;;;;;;5054035;28;20411;-77
2021/10/31 08:40:51;;;;;;;12.10;9.87;;;13.60;99.90;;;;;;5054226;28;20419;-77
2021/10/31 08:43:18;;;;;;;12.37;10.90;;;13.70;99.90;;;;;;5052021;28;20466;-77
2021/10/31 08:45:46;;;;;;;14.43;10.57;;;13.80;99.90;;;;;;5052603;28;20449;-77
2021/10/31 08:48:15;;;;;;;13.43;10.50;;;13.80;99.90;;;;;;5051845;28;20550;-78
2021/10/31 08:50:43;;;;;;;13.43;11.13;;;13.80;99.90;;;;;;5052418;28;20459;-77
2021/10/31 08:53:10;;;;;;;12.40;10.40;;;14.00;99.90;;;;;;5053285;28;20468;-77
2021/10/31 08:55:39;;;;;;;12.40;10.70;;;14.10;99.90;;;;;;5054379;28;20437;-78
2021/10/31 08:58:08;;;;;;;12.60;10.33;;;14.10;99.90;;;;;;5053367;28;20435;-76
2021/10/31 09:00:35;;;;;;;13.10;10.97;;;14.10;99.90;;;;;;5055119;28;20458;-77
2021/10/31 09:03:02;;;;;;;12.73;9.70;;;14.20;99.90;;;;;;5055251;28;20526;-78
2021/10/31 09:05:29;;;;;;;12.27;10.73;;;14.30;99.90;;;;;;5052882;28;20427;-77
2021/10/31 09:07:56;;;;;;;11.67;9.87;;;14.40;99.90;;;;;;5051754;28;20449;-77
2021/10/31 09:10:23;;;;;;;11.17;9.50;;;14.40;99.90;;;;;;5051890;28;20491;-78
2021/10/31 09:12:49;;;;;;;10.80;9.27;;;14.40;99.90;;;;;;5051889;28;20472;-77
2021/10/31 09:15:18;;;;;;;13.27;9.70;;;14.50;99.90;;;;;;5051759;28;20448;-77
2021/10/31 09:17:45;;;;;;;7.73;6.33;;;14.70;99.90;;;;;;5051555;28;20433;-77
2021/10/31 09:20:12;;;;;;;6.23;4.70;;;14.70;99.90;;;;;;5051826;28;20869;-77
2021/10/31 09:22:39;;;;;;;10.57;5.73;;;14.70;99.90;;;;;;5055002;28;20924;-77
2021/10/31 09:25:06;;;;;;;7.17;5.53;;;14.60;99.90;;;;;;5055419;28;20444;-77
2021/10/31 09:27:36;;;;;;;6.43;5.07;;;14.70;99.90;;;;;;5056592;28;20532;-77
2021/10/31 09:30:03;;;;;;;7.57;5.47;;;14.80;99.90;;;;;;5056887;28;21010;-77
2021/10/31 09:32:49;;;;;;;6.40;4.87;;;14.90;99.90;;;;;;5055751;28;20447;-77
2021/10/31 09:35:18;;;;;;;5.60;4.37;;;15.10;99.90;;;;;;5056093;28;20392;-77
2021/10/31 09:37:46;;;;;;;5.03;3.93;;;15.10;99.90;;;;;;5058262;28;20460;-77
2021/10/31 09:40:14;;;;;;;5.70;4.27;;;15.20;99.90;;;;;;5057256;28;20444;-77
2021/10/31 09:42:41;;;;;;;6.63;4.20;;;15.20;99.90;;;;;;5055862;28;20844;-77
2021/10/31 09:45:10;;;;;;;7.33;3.90;;;15.30;99.90;;;;;;5055701;28;20597;-77
2021/10/31 09:47:38;;;;;;;6.77;4.40;;;15.40;99.90;;;;;;5056037;28;20473;-78
2021/10/31 09:50:06;;;;;;;5.17;3.73;;;15.40;99.90;;;;;;5055779;28;20776;-77
2021/10/31 09:52:33;;;;;;;7.63;5.10;;;15.50;99.90;;;;;;5055051;28;20757;-77
2021/10/31 09:55:00;;;;;;;5.20;3.50;;;15.50;99.90;;;;;;5054935;28;20431;-77
2021/10/31 09:57:26;;;;;;;5.40;3.60;;;15.50;99.90;;;;;;5055136;28;20446;-77
2021/10/31 09:59:54;;;;;;;5.47;3.90;;;15.70;99.90;;;;;;5054760;28;20807;-77
2021/10/31 10:02:45;;;;;;;5.07;3.70;;;15.80;99.90;;;;;;5055107;28;20489;-76
2021/10/31 10:05:19;;;;;;;5.00;3.53;;;15.90;99.90;;;;;;5055542;28;20465;-78
2021/10/31 10:07:47;;;;;;;4.27;3.00;;;15.90;99.90;;;;;;5057567;28;20425;-76
2021/10/31 10:10:15;;;;;;;5.40;3.27;;;15.90;99.90;;;;;;5056035;28;20465;-77
2021/10/31 10:12:42;;;;;;;4.00;2.60;;;16.00;99.90;;;;;;5054652;28;20764;-76
2021/10/31 10:15:11;;;;;;;5.00;2.97;;;16.20;99.90;;;;;;5055290;28;20427;-77
2021/10/31 10:17:46;;;;;;;5.27;2.90;;;16.20;99.90;;;;;;5054570;28;20457;-77
2021/10/31 10:20:15;;;;;;;4.20;2.57;;;16.40;99.90;;;;;;5054565;28;20445;-76
2021/10/31 10:22:43;;;;;;;5.73;3.67;;;16.40;99.90;;;;;;5054483;28;20940;-76
2021/10/31 10:25:11;;;;;;;5.67;3.33;;;16.40;99.90;;;;;;5054718;28;20448;-77
2021/10/31 10:27:48;;;;;;;8.97;3.80;;;16.50;99.90;;;;;;5053999;28;20448;-77
2021/10/31 10:30:17;;;;;;;7.37;3.73;;;16.60;99.90;;;;;;5053781;28;20454;-77
2021/10/31 10:32:52;;;;;;;6.43;3.53;;;16.70;99.90;;;;;;5053582;28;20524;-76
2021/10/31 10:35:21;;;;;;;6.30;3.80;;;16.80;99.90;;;;;;5054342;28;20498;-76
2021/10/31 10:37:50;;;;;;;4.33;3.07;;;16.80;99.90;;;;;;5054684;28;20552;-77
2021/10/31 10:40:23;;;;;;;6.70;3.73;;;16.90;99.90;;;;;;5054833;28;20437;-77
2021/10/31 10:42:52;;;;;;;4.60;2.67;;;17.00;99.90;;;;;;5078929;22;20543;-82
2021/10/31 10:45:21;;;;;;;4.33;2.40;;;17.10;99.90;;;;;;5029094;28;20451;-82
2021/10/31 10:47:53;;;;;;;4.30;2.30;;;17.20;99.90;;;;;;5020559;28;20855;-81
2021/10/31 10:50:22;;;;;;;4.20;2.30;;;17.30;99.90;;;;;;5020914;28;20446;-82
2021/10/31 10:52:51;;;;;;;4.40;2.67;;;17.40;99.90;;;;;;5023354;28;20458;-82
2021/10/31 10:55:20;;;;;;;5.80;2.67;;;17.50;99.90;;;;;;5021550;28;20460;-82
2021/10/31 10:57:49;;;;;;;3.87;2.47;;;17.80;99.90;;;;;;5019002;28;20468;-83
2021/10/31 11:00:18;;;;;;;4.67;2.63;;;17.80;99.90;;;;;;5019530;28;20592;-82
2021/10/31 11:02:45;;;;;;;6.03;3.73;;;17.90;99.90;;;;;;5027576;28;20453;-83
2021/10/31 11:05:14;;;;;;;4.77;2.30;;;17.90;99.90;;;;;;5032336;28;20489;-81
2021/10/31 11:07:45;;;;;;;6.33;2.67;;;17.90;99.90;;;;;;5033460;28;20452;-82
2021/10/31 11:10:18;;;;;;;4.30;2.13;;;18.00;99.90;;;;;;5024807;28;20505;-80
2021/10/31 11:12:46;;;;;;;6.03;3.60;;;18.10;99.90;;;;;;5019489;28;20790;-81
2021/10/31 11:15:15;;;;;;;5.40;3.30;;;18.10;99.90;;;;;;5020735;28;20520;-82
2021/10/31 11:17:44;;;;;;;5.53;3.50;;;18.20;99.90;;;;;;5028547;28;20460;-83
2021/10/31 11:20:13;;;;;;;6.13;3.23;;;18.30;99.90;;;;;;5019459;28;20484;-82
2021/10/31 11:22:43;;;;;;;5.10;3.20;;;18.30;99.90;;;;;;5018747;28;20504;-82
2021/10/31 11:25:13;;;;;;;5.20;3.10;;;18.30;99.90;;;;;;5021136;28;20453;-82
2021/10/31 11:27:41;;;;;;;5.70;3.10;;;18.20;99.90;;;;;;5020743;28;20520;-82
2021/10/31 11:30:10;;;;;;;4.70;2.40;;;18.20;99.90;;;;;;5019066;28;20485;-83
2021/10/31 11:32:41;;;;;;;4.70;2.63;;;18.30;99.90;;;;;;5019396;28;20583;-82
2021/10/31 11:35:13;;;;;;;4.40;2.63;;;18.30;99.90;;;;;;5019343;28;20442;-82
2021/10/31 11:37:44;;;;;;;6.20;2.70;;;18.40;99.90;;;;;;5018935;28;20441;-82
2021/10/31 11:40:12;;;;;;;5.30;2.80;;;18.60;99.90;;;;;;5019020;28;20473;-83
2021/10/31 11:42:43;;;;;;;5.00;2.50;;;18.70;99.90;;;;;;5019666;28;20564;-82
2021/10/31 11:45:16;;;;;;;4.83;2.93;;;18.70;99.90;;;;;;5018570;28;20437;-84
2021/10/31 11:47:45;;;;;;;5.30;2.80;;;18.80;99.90;;;;;;5021515;28;20525;-82
2021/10/31 11:50:19;;;;;;;4.40;2.27;;;18.90;99.90;;;;;;5021150;28;20489;-82
2021/10/31 11:53:02;;;;;;;8.30;2.70;;;19.00;99.90;;;;;;5019473;28;20491;-82
2021/10/31 11:55:41;;;;;;;4.30;2.70;;;19.10;99.90;;;;;;5020814;28;20437;-82
2021/10/31 12:01:44;;;;;;;3.90;2.53;;;19.30;99.60;;;;;;5018114;28;20435;-83
2021/10/31 12:04:13;;;;;;;5.33;2.80;;;19.30;98.60;;;;;;5019816;28;20537;-82
2021/10/31 12:06:43;;;;;;;5.80;2.70;;;19.30;97.70;;;;;;5019642;28;20453;-82
2021/10/31 12:09:28;;;;;;;3.80;2.10;;;19.40;97.70;;;;;;5034068;28;20465;-82
2021/10/31 12:12:16;;;;;;;4.50;2.13;;;19.40;97.10;;;;;;5035606;28;20529;-82
2021/10/31 12:14:58;;;;;;;3.60;2.13;;;19.40;96.90;;;;;;5032528;28;20465;-83
2021/10/31 12:17:28;;;;;;;5.37;3.27;;;19.50;96.90;;;;;;5035074;28;20878;-82
2021/10/31 12:19:56;;;;;;;3.70;2.17;;;19.50;96.90;;;;;;5026429;28;20872;-83
2021/10/31 12:22:35;;;;;;;4.43;2.70;;;19.50;96.80;;;;;;5029248;28;20458;-83
2021/10/31 12:25:05;;;;;;;4.40;2.80;;;19.50;96.70;;;;;;5019595;28;20528;-83
2021/10/31 12:27:42;;;;;;;6.93;3.20;;;19.50;96.60;;;;;;5020129;28;20802;-84
2021/10/31 12:30:42;;;;;;;4.53;2.70;;;19.60;96.50;;;;;;5019987;28;20876;-83
2021/10/31 12:33:13;;;;;;;4.40;2.77;;;19.60;96.30;;;;;;5019489;28;20993;-83
2021/10/31 12:35:43;;;;;;;4.53;2.80;;;19.60;96.30;;;;;;5018515;28;20442;-83
2021/10/31 12:38:33;;;;;;;5.07;2.67;;;19.60;96.30;;;;;;5024032;28;20533;-83
2021/10/31 12:41:21;;;;;;;5.93;3.10;;;19.70;96.30;;;;;;5029572;28;20466;-80
2021/10/31 12:43:52;;;;;;;4.20;2.70;;;19.70;96.00;;;;;;5033614;28;20513;-83
2021/10/31 12:46:23;;;;;;;4.10;2.57;;;19.70;96.10;;;;;;5022596;28;20445;-82
2021/10/31 12:48:53;;;;;;;5.00;2.87;;;19.70;96.20;;;;;;5019634;28;20438;-82
2021/10/31 12:54:22;;;;;;;4.40;3.00;;;19.70;95.50;;;;;;5018712;28;20473;-83
2021/10/31 12:56:51;;;;;;;5.30;2.87;;;19.80;95.70;;;;;;5020984;28;20536;-82
2021/10/31 12:59:18;;;;;;;5.20;2.57;;;19.80;95.80;;;;;;5023085;28;20480;-83
2021/10/31 13:01:46;;;;;;;4.93;3.30;;;19.80;96.00;;;;;;5022347;28;20449;-82